N636CX KUDD-KEMT
Flight info
| Callsign | N636CX |
|---|---|
| Flight time | N/A |
| Altitude | 10000 |
| Route | PSP V388 RNDAL V363 POM(PSPP5 - J=120 M=120 P=100 Q=100) |
| Aircraft | BE58/L-VRDW/C |
Departure
| Time | 2026-05-05 01:06 |
|---|---|
| Airport | Bermuda Dunes Airport (KUDD) |
Arrival
| Time | N/A |
|---|---|
| Airport | San Gabriel Valley Airport (KEMT) |
| Time | Latitude | Longitude | Altitude | Speed | Heading |
|---|---|---|---|---|---|
| 2026-05-05 00:57 | 33.74523 | -116.26973 | 61 ft | 0 kts | 271° |
| 2026-05-05 01:01 | 33.74523 | -116.26975 | 61 ft | 1 kts | 263° |
| 2026-05-05 01:01 | 33.74507 | -116.26985 | 61 ft | 4 kts | 188° |
| 2026-05-05 01:02 | 33.74472 | -116.26973 | 61 ft | 8 kts | 68° |
| 2026-05-05 01:02 | 33.74536 | -116.26951 | 61 ft | 9 kts | 0° |
| 2026-05-05 01:02 | 33.74557 | -116.26950 | 61 ft | 4 kts | 359° |
| 2026-05-05 01:02 | 33.74573 | -116.26926 | 61 ft | 3 kts | 116° |
| 2026-05-05 01:03 | 33.74572 | -116.26917 | 61 ft | 0 kts | 86° |
| 2026-05-05 01:05 | 33.74574 | -116.26913 | 61 ft | 2 kts | 45° |
| 2026-05-05 01:05 | 33.74609 | -116.26901 | 61 ft | 5 kts | 331° |
| 2026-05-05 01:05 | 33.74638 | -116.26974 | 61 ft | 33 kts | 294° |
| 2026-05-05 01:05 | 33.74864 | -116.27530 | 120 ft | 96 kts | 294° |
| 2026-05-05 01:06 | 33.75145 | -116.28354 | 372 ft | 122 kts | 290° |
| 2026-05-05 01:06 | 33.75436 | -116.29392 | 664 ft | 136 kts | 287° |
| 2026-05-05 01:06 | 33.75729 | -116.30487 | 996 ft | 144 kts | 285° |
| 2026-05-05 01:06 | 33.75797 | -116.31708 | 1312 ft | 148 kts | 257° |
| 2026-05-05 01:07 | 33.75162 | -116.32700 | 1541 ft | 160 kts | 213° |
| 2026-05-05 01:07 | 33.74049 | -116.32851 | 1777 ft | 173 kts | 168° |
| 2026-05-05 01:07 | 33.73086 | -116.31956 | 2022 ft | 182 kts | 124° |
| 2026-05-05 01:07 | 33.72727 | -116.30500 | 2287 ft | 184 kts | 102° |
| 2026-05-05 01:08 | 33.72511 | -116.28980 | 2561 ft | 184 kts | 101° |
| 2026-05-05 01:08 | 33.72298 | -116.27450 | 2837 ft | 183 kts | 104° |
| 2026-05-05 01:08 | 33.71685 | -116.26170 | 3081 ft | 179 kts | 137° |
| 2026-05-05 01:08 | 33.70804 | -116.25110 | 3348 ft | 178 kts | 140° |
| 2026-05-05 01:09 | 33.69909 | -116.24072 | 3618 ft | 178 kts | 140° |
| 2026-05-05 01:09 | 33.69011 | -116.23042 | 3881 ft | 178 kts | 141° |
| 2026-05-05 01:09 | 33.68110 | -116.22018 | 4138 ft | 178 kts | 141° |
| 2026-05-05 01:09 | 33.67201 | -116.20990 | 4400 ft | 178 kts | 141° |
| 2026-05-05 01:10 | 33.66303 | -116.19977 | 4655 ft | 178 kts | 141° |
| 2026-05-05 01:10 | 33.65396 | -116.18956 | 4908 ft | 178 kts | 141° |
| 2026-05-05 01:10 | 33.64488 | -116.17939 | 5161 ft | 178 kts | 141° |
| 2026-05-05 01:10 | 33.63575 | -116.16921 | 5404 ft | 179 kts | 140° |
| 2026-05-05 01:11 | 33.62662 | -116.15906 | 5651 ft | 178 kts | 140° |
| 2026-05-05 01:11 | 33.61893 | -116.14744 | 5870 ft | 184 kts | 112° |
| 2026-05-05 01:11 | 33.61908 | -116.13228 | 6085 ft | 186 kts | 67° |
| 2026-05-05 01:11 | 33.62757 | -116.12126 | 6305 ft | 180 kts | 22° |
| 2026-05-05 01:12 | 33.63905 | -116.11610 | 6538 ft | 180 kts | 29° |
| 2026-05-05 01:12 | 33.65080 | -116.11311 | 6751 ft | 172 kts | 346° |
| 2026-05-05 01:12 | 33.66031 | -116.12047 | 6957 ft | 163 kts | 300° |
| 2026-05-05 01:12 | 33.66571 | -116.13236 | 7188 ft | 163 kts | 304° |
| 2026-05-05 01:13 | 33.67320 | -116.14278 | 7433 ft | 162 kts | 308° |
| 2026-05-05 01:13 | 33.68061 | -116.15293 | 7660 ft | 163 kts | 308° |
| 2026-05-05 01:13 | 33.68809 | -116.16332 | 7894 ft | 163 kts | 307° |
| 2026-05-05 01:13 | 33.69539 | -116.17361 | 8122 ft | 162 kts | 307° |
| 2026-05-05 01:14 | 33.70262 | -116.18391 | 8349 ft | 162 kts | 307° |
| 2026-05-05 01:14 | 33.70993 | -116.19439 | 8569 ft | 163 kts | 307° |
| 2026-05-05 01:14 | 33.71712 | -116.20474 | 8794 ft | 161 kts | 307° |
| 2026-05-05 01:14 | 33.72415 | -116.21409 | 8921 ft | 138 kts | 314° |
| 2026-05-05 01:15 | 33.73043 | -116.22199 | 8938 ft | 122 kts | 314° |
| 2026-05-05 01:15 | 33.73490 | -116.22696 | 8939 ft | 116 kts | 331° |